Edgewater, WI

1:04 PM CDT on August 21, 2014 (GMT -0500)
Rusk County | Change Station
CLOSE
Current Station
Airport
Location: Ladysmith,
Elevation: 1237 ft
Nearby Weather Stations

Elev 1237 ft 45.49 °N, 91.00 °W | Updated 9 minutes ago

Overcast
Overcast
73 °F
Feels Like 73 °F
N
7
Wind Variable Wind from SE

Today
High -- | Low -- °F
--% Chance of Precip.
Yesterday
High -- | Low -- °F
Precip. -- in
6:13 AM 8:03 PM
Waning Crescent, 13% visible
Pressure 29.89 in
Visibility 10.0 miles
Clouds Mostly Cloudy 1000 ft
Mostly Cloudy 1400 ft
Overcast 7500 ft
Dew Point 68 °F
Humidity 84%
Rainfall 1.01 in
Snow Depth Not available.
UV 3 out of 12
Pollen 6.60 out of 12
Air Quality Not available.
Flu Activity Not available.
METAR KRCX 211755Z AUTO 14006KT 10SM BKN010 BKN014 OVC075 23/20 A2989 RMK AO2 60071 T02280199 10228 20171

More Conditions Fewer Conditions

Pressure 29.89 in
Visibility 10.0 miles
Clouds Mostly Cloudy 1000 ft
Mostly Cloudy 1400 ft
Overcast 7500 ft
Dew Point 68 °F
Humidity 84%
Rainfall 1.01 in
Snow Depth Not available.
UV 3 out of 12
Pollen 6.60 out of 12
Air Quality Not available.
Flu Activity Not available.
METAR KRCX 211755Z AUTO 14006KT 10SM BKN010 BKN014 OVC075 23/20 A2989 RMK AO2 60071 T02280199 10228 20171

More Conditions Fewer Conditions

10-Day Weather Forecast

Almanac

Astronomy

Aug. 21, 2014 Rise Set
Actual Time 6:13 AM CDT 8:03 PM CDT
Civil Twilight 5:41 AM CDT 8:35 PM CDT
Nautical Twilight 5:02 AM CDT 9:14 PM CDT
Astronomical Twilight 4:20 AM CDT 9:56 PM CDT
Moon 2:38 AM CDT 5:37 PM CDT
Length of Visible Light 14h 53m
Length of Day
13h 50m
Tomorrow will be 2m 58s shorter.
Waning Crescent, 13% of the Moon is Illuminated
Today
Waning Crescent
Aug 25
New
Sep 2
First Quarter
Sep 8
Full
Sep 15
Last Quarter

Today's Extremes

State Highs State Lows

Community

WunderPhotos

Upload Photos

1,745,987 photos uploaded!

WunderBlogs® & News

Nearby

Snow Depth

Station Depth Elevation
No new snow has been reported.

Earthquake Activity

City Distance Mag. Time & Date
No recent earthquake activity has been reported nearby.
Minimum magnitude displayed is 2.5.

Coastal Water Temperatures

Place Temperature
No Stations Reporting

Nearby Weather Stations